createdAt,value
2023-02-13T00:00:32.835Z,12.30
2023-02-13T00:03:00.361Z,11.30
2023-02-13T00:05:27.983Z,11.43
2023-02-13T00:07:55.538Z,12.05
2023-02-13T00:10:23.217Z,12.13
2023-02-13T00:12:50.825Z,12.57
2023-02-13T00:15:18.417Z,13.32
2023-02-13T00:17:45.965Z,13.30
2023-02-13T00:20:13.673Z,12.35
2023-02-13T00:22:41.372Z,13.18
2023-02-13T00:25:09.333Z,12.35
2023-02-13T00:27:36.981Z,13.52
2023-02-13T00:30:05.387Z,13.30
2023-02-13T00:32:33.050Z,13.75
2023-02-13T00:35:00.595Z,12.80
2023-02-13T00:37:28.200Z,13.90
2023-02-13T00:39:56.296Z,13.18
2023-02-13T00:42:26.378Z,14.80
2023-02-13T00:44:54.784Z,13.57
2023-02-13T00:47:24.063Z,13.18
2023-02-13T00:49:51.666Z,13.52
2023-02-13T00:52:19.274Z,14.43
2023-02-13T00:54:47.624Z,13.88
2023-02-13T00:57:15.297Z,14.05
2023-02-13T00:59:43.523Z,15.23
2023-02-13T01:02:11.100Z,15.68
2023-02-13T01:04:40.465Z,15.10
2023-02-13T01:07:08.221Z,16.23
2023-02-13T01:09:35.844Z,15.02
2023-02-13T01:12:03.593Z,14.32
2023-02-13T01:14:31.313Z,15.05
2023-02-13T01:16:58.976Z,14.15
2023-02-13T01:19:26.629Z,14.40
2023-02-13T01:21:54.290Z,14.98
2023-02-13T01:24:21.883Z,14.93
2023-02-13T01:26:49.532Z,15.18
2023-02-13T01:29:17.385Z,14.88
2023-02-13T01:31:45.060Z,15.07
2023-02-13T01:34:12.722Z,15.20
2023-02-13T01:36:41.751Z,15.18
2023-02-13T01:39:12.197Z,15.55
2023-02-13T01:41:39.828Z,15.18
2023-02-13T01:44:26.114Z,15.35
2023-02-13T01:46:53.746Z,15.30
2023-02-13T01:49:24.014Z,15.57
2023-02-13T01:51:53.702Z,15.32
2023-02-13T01:54:30.809Z,15.43
2023-02-13T01:57:03.051Z,15.55
2023-02-13T01:59:34.206Z,14.35
2023-02-13T02:02:02.022Z,12.80
2023-02-13T02:04:34.173Z,13.68
2023-02-13T02:07:09.268Z,14.68
2023-02-13T02:09:39.361Z,15.20
2023-02-13T02:12:07.066Z,15.07
2023-02-13T02:14:38.486Z,15.18
2023-02-13T02:17:08.297Z,15.48
2023-02-13T02:19:40.018Z,15.18
2023-02-13T02:22:26.369Z,14.18
2023-02-13T02:25:04.496Z,14.75
2023-02-13T02:27:59.442Z,14.55
2023-02-13T02:30:39.743Z,15.27
2023-02-13T02:33:19.793Z,15.07
2023-02-13T02:36:08.173Z,14.68
2023-02-13T02:38:48.037Z,14.60
2023-02-13T02:41:35.688Z,15.75
2023-02-13T02:44:18.668Z,15.70
2023-02-13T02:47:12.947Z,14.85
2023-02-13T02:50:01.037Z,14.80
2023-02-13T02:52:47.565Z,15.65
2023-02-13T02:55:22.283Z,14.98
2023-02-13T02:58:21.806Z,14.68
2023-02-13T03:01:19.596Z,14.43
2023-02-13T03:04:07.322Z,14.20
2023-02-13T03:06:41.040Z,13.80
2023-02-13T03:09:30.505Z,14.25
2023-02-13T03:12:17.431Z,13.93
2023-02-13T03:14:45.285Z,13.20
2023-02-13T03:17:32.596Z,13.95
2023-02-13T03:20:33.820Z,14.45
2023-02-13T03:23:15.906Z,13.25
2023-02-13T03:25:55.478Z,14.90
2023-02-13T03:29:06.376Z,14.57
2023-02-13T03:31:47.704Z,14.05
2023-02-13T03:34:17.882Z,15.02
2023-02-13T03:37:04.176Z,15.10
2023-02-13T03:39:37.737Z,14.52
2023-02-13T03:42:06.955Z,15.00
2023-02-13T03:44:40.500Z,14.82
2023-02-13T03:47:09.621Z,13.65
2023-02-13T03:49:59.846Z,14.95
2023-02-13T03:52:32.388Z,14.40
2023-02-13T03:55:20.913Z,14.45
2023-02-13T03:58:07.813Z,14.70
2023-02-13T04:00:40.351Z,15.23
2023-02-13T04:03:14.853Z,14.15
2023-02-13T04:05:45.639Z,14.13
2023-02-13T04:08:13.279Z,13.85
2023-02-13T04:10:46.462Z,12.35
2023-02-13T04:13:16.681Z,13.00
2023-02-13T04:15:50.829Z,13.90
2023-02-13T04:18:20.038Z,12.45
2023-02-13T04:20:47.701Z,11.50
2023-02-13T04:23:16.042Z,11.82
2023-02-13T04:25:45.120Z,11.48
2023-02-13T04:28:12.716Z,11.57
2023-02-13T04:30:40.394Z,12.07
2023-02-13T04:33:08.028Z,12.90
2023-02-13T04:35:35.603Z,12.73
2023-02-13T04:38:03.499Z,13.00
2023-02-13T04:40:31.088Z,13.43
2023-02-13T04:42:59.065Z,13.77
2023-02-13T04:45:26.687Z,12.90
2023-02-13T04:47:55.494Z,12.77
2023-02-13T04:50:23.187Z,11.07
2023-02-13T04:52:55.130Z,11.50
2023-02-13T04:55:23.331Z,11.68
2023-02-13T04:57:53.383Z,9.98
2023-02-13T05:00:21.761Z,10.82
2023-02-13T05:02:49.320Z,10.02
2023-02-13T05:05:17.085Z,10.77
2023-02-13T05:07:44.655Z,10.50
2023-02-13T05:10:12.722Z,11.13
2023-02-13T05:12:40.258Z,10.35
2023-02-13T05:15:08.101Z,10.57
2023-02-13T05:17:35.669Z,11.40
2023-02-13T05:20:03.297Z,10.88
2023-02-13T05:22:49.384Z,10.10
2023-02-13T05:25:16.950Z,11.52
2023-02-13T05:27:44.589Z,11.23
2023-02-13T05:30:12.581Z,11.45
2023-02-13T05:32:42.409Z,11.32
2023-02-13T05:35:10.049Z,10.38
2023-02-13T05:37:37.631Z,11.13
2023-02-13T05:40:05.322Z,11.32
2023-02-13T05:42:32.874Z,11.30
2023-02-13T05:45:00.436Z,12.20
2023-02-13T05:47:28.075Z,12.55
2023-02-13T05:49:55.628Z,13.48
2023-02-13T05:52:23.260Z,14.27
2023-02-13T05:54:51.487Z,13.88
2023-02-13T05:57:19.301Z,14.63
2023-02-13T05:59:46.829Z,13.85
2023-02-13T06:02:14.444Z,14.48
2023-02-13T06:04:42.119Z,13.77
2023-02-13T06:07:09.798Z,14.70
2023-02-13T06:09:37.412Z,15.43
2023-02-13T06:12:05.041Z,15.00
2023-02-13T06:14:32.604Z,14.07
2023-02-13T06:17:01.626Z,15.07
2023-02-13T06:19:29.213Z,15.50
2023-02-13T06:21:56.798Z,14.85
2023-02-13T06:24:24.418Z,15.20
2023-02-13T06:26:52.074Z,15.10
2023-02-13T06:29:19.616Z,16.05
2023-02-13T06:31:47.237Z,16.05
2023-02-13T06:34:14.943Z,15.23
2023-02-13T06:36:42.683Z,14.27
2023-02-13T06:39:11.608Z,14.40
2023-02-13T06:41:39.144Z,14.45
2023-02-13T06:44:07.852Z,13.60
2023-02-13T06:46:35.520Z,16.42
2023-02-13T06:49:03.261Z,17.00
2023-02-13T06:51:30.830Z,17.08
2023-02-13T06:53:58.540Z,16.27
2023-02-13T06:56:26.378Z,16.55
2023-02-13T06:58:54.106Z,17.10
2023-02-13T07:01:21.817Z,16.63
2023-02-13T07:03:49.536Z,17.52
2023-02-13T07:06:20.450Z,17.30
2023-02-13T07:08:48.522Z,18.73
2023-02-13T07:11:23.446Z,17.92
2023-02-13T07:13:51.624Z,19.10
2023-02-13T07:16:19.349Z,18.50
2023-02-13T07:18:47.016Z,18.38
2023-02-13T07:21:14.824Z,18.50
2023-02-13T07:23:42.433Z,18.45
2023-02-13T07:26:11.139Z,17.48
2023-02-13T07:28:38.807Z,16.48
2023-02-13T07:31:07.042Z,16.48
2023-02-13T07:33:35.444Z,16.95
2023-02-13T07:36:03.970Z,17.85
2023-02-13T07:38:32.072Z,18.40
2023-02-13T07:41:03.509Z,18.42
2023-02-13T07:43:31.141Z,19.27
2023-02-13T07:45:59.465Z,17.17
2023-02-13T07:48:27.454Z,17.85
2023-02-13T07:50:55.740Z,17.67
2023-02-13T07:53:23.431Z,17.25
2023-02-13T07:55:51.012Z,17.30
2023-02-13T07:58:18.679Z,17.08
2023-02-13T08:00:46.335Z,17.58
2023-02-13T08:03:13.967Z,17.23
2023-02-13T08:05:41.698Z,16.10
2023-02-13T08:08:09.309Z,17.73
2023-02-13T08:10:55.521Z,18.40
2023-02-13T08:13:23.082Z,17.30
2023-02-13T08:15:50.674Z,18.30
2023-02-13T08:18:19.728Z,18.88
2023-02-13T08:20:48.483Z,18.45
2023-02-13T08:23:16.170Z,18.95
2023-02-13T08:25:43.897Z,16.92
2023-02-13T08:28:11.558Z,18.60
2023-02-13T08:30:39.233Z,19.00
2023-02-13T08:33:07.857Z,18.42
2023-02-13T08:35:35.754Z,17.60
2023-02-13T08:38:04.462Z,17.00
2023-02-13T08:40:32.755Z,17.30
2023-02-13T08:43:01.344Z,17.40
2023-02-13T08:45:28.981Z,17.83
2023-02-13T08:47:57.518Z,16.88
2023-02-13T08:50:25.839Z,18.65
2023-02-13T08:52:53.742Z,18.08
2023-02-13T08:55:21.326Z,17.85
2023-02-13T08:57:48.891Z,18.10
2023-02-13T09:00:16.565Z,18.08
2023-02-13T09:02:44.310Z,17.00
2023-02-13T09:05:11.866Z,16.40
2023-02-13T09:07:39.429Z,16.27
2023-02-13T09:10:07.358Z,15.52
2023-02-13T09:12:35.105Z,15.80
2023-02-13T09:15:02.658Z,14.50
2023-02-13T09:17:30.281Z,15.52
2023-02-13T09:19:57.839Z,17.27
2023-02-13T09:22:25.378Z,15.55
2023-02-13T09:24:52.916Z,15.90
2023-02-13T09:27:20.515Z,16.95
2023-02-13T09:29:48.568Z,16.33
2023-02-13T09:32:16.990Z,17.48
2023-02-13T09:34:44.590Z,16.33
2023-02-13T09:37:12.132Z,17.48
2023-02-13T09:39:39.797Z,16.75
2023-02-13T09:42:12.108Z,17.38
2023-02-13T09:44:43.056Z,17.10
2023-02-13T09:47:25.650Z,16.47
2023-02-13T09:50:04.893Z,15.63
2023-02-13T09:52:36.502Z,14.10
2023-02-13T09:55:04.785Z,14.88
2023-02-13T09:57:35.181Z,17.15
2023-02-13T10:00:32.253Z,16.77
2023-02-13T10:03:01.075Z,17.40
2023-02-13T10:05:34.615Z,16.52
2023-02-13T10:08:07.900Z,17.45
2023-02-13T10:10:52.560Z,16.73
2023-02-13T10:13:23.504Z,15.63
2023-02-13T10:16:09.801Z,17.77
2023-02-13T10:18:46.304Z,16.70
2023-02-13T10:21:14.798Z,17.08
2023-02-13T10:23:48.490Z,17.25
2023-02-13T10:26:21.337Z,16.63
2023-02-13T10:29:17.926Z,17.58
2023-02-13T10:31:46.330Z,15.45
2023-02-13T10:34:16.288Z,16.52
2023-02-13T10:36:47.852Z,16.60
2023-02-13T10:39:18.441Z,17.30
2023-02-13T10:42:04.463Z,16.35
2023-02-13T10:44:52.740Z,15.18
2023-02-13T10:47:23.141Z,14.18
2023-02-13T10:50:00.627Z,16.27
2023-02-13T10:52:45.807Z,15.48
2023-02-13T10:55:32.018Z,16.35
2023-02-13T10:58:09.717Z,14.82
2023-02-13T11:00:37.366Z,14.88
2023-02-13T11:03:05.093Z,15.27
2023-02-13T11:05:34.428Z,15.43
2023-02-13T11:08:03.149Z,14.80
2023-02-13T11:10:30.707Z,15.57
2023-02-13T11:12:59.013Z,15.23
2023-02-13T11:15:26.677Z,15.32
2023-02-13T11:17:55.530Z,14.48
2023-02-13T11:20:44.651Z,15.02
2023-02-13T11:23:18.274Z,15.02
2023-02-13T11:26:15.330Z,14.60
2023-02-13T11:28:48.341Z,14.18
2023-02-13T11:31:27.045Z,13.85
2023-02-13T11:33:54.768Z,16.15
2023-02-13T11:36:33.365Z,15.13
2023-02-13T11:39:05.859Z,15.60
2023-02-13T11:41:43.545Z,15.25
2023-02-13T11:44:37.325Z,16.05
2023-02-13T11:47:05.029Z,14.90
2023-02-13T11:49:34.642Z,15.18
2023-02-13T11:52:03.054Z,15.98
2023-02-13T11:54:36.561Z,15.50
2023-02-13T11:57:17.815Z,16.42
2023-02-13T11:59:46.751Z,16.98
2023-02-13T12:02:23.600Z,16.73
2023-02-13T12:04:53.079Z,16.00
2023-02-13T12:07:22.756Z,15.55
2023-02-13T12:10:02.380Z,15.75
2023-02-13T12:12:35.038Z,15.18
2023-02-13T12:15:15.726Z,16.50
2023-02-13T12:17:45.176Z,16.65
2023-02-13T12:20:14.667Z,16.40
2023-02-13T12:22:48.385Z,15.63
2023-02-13T12:25:28.461Z,16.05
2023-02-13T12:28:03.009Z,16.95
2023-02-13T12:30:36.485Z,16.88
2023-02-13T12:33:19.199Z,15.98
2023-02-13T12:36:05.610Z,15.00
2023-02-13T12:38:38.645Z,16.65
2023-02-13T12:41:12.378Z,17.45
2023-02-13T12:43:39.889Z,18.08
2023-02-13T12:46:11.661Z,16.90
2023-02-13T12:51:18.437Z,17.13
2023-02-13T12:54:04.671Z,16.77
2023-02-13T12:56:38.277Z,15.30
2023-02-13T12:59:10.891Z,15.80
2023-02-13T13:01:51.665Z,16.15
2023-02-13T13:04:40.351Z,16.00
2023-02-13T13:07:14.953Z,16.20
2023-02-13T13:09:45.276Z,15.30
2023-02-13T13:12:12.886Z,16.15
2023-02-13T13:15:09.507Z,16.98
2023-02-13T13:17:49.426Z,17.13
2023-02-13T13:20:28.651Z,16.35
2023-02-13T13:23:19.269Z,16.27
2023-02-13T13:25:49.664Z,16.05
2023-02-13T13:28:21.683Z,17.20
2023-02-13T13:30:49.928Z,15.60
2023-02-13T13:33:18.984Z,15.63
2023-02-13T13:36:06.937Z,15.52
2023-02-13T13:38:34.499Z,15.55
2023-02-13T13:41:25.169Z,15.65
2023-02-13T13:44:10.889Z,16.00
2023-02-13T13:46:49.122Z,15.15
2023-02-13T13:49:37.234Z,15.20
2023-02-13T13:52:23.464Z,14.75
2023-02-13T13:54:54.463Z,14.65
2023-02-13T13:57:23.157Z,14.60
2023-02-13T13:59:58.446Z,14.32
2023-02-13T14:02:26.029Z,13.95
2023-02-13T14:05:02.785Z,14.77
2023-02-13T14:07:43.501Z,14.73
2023-02-13T14:10:31.385Z,14.73
2023-02-13T14:12:58.952Z,14.35
2023-02-13T14:15:37.526Z,14.65
2023-02-13T14:18:08.262Z,13.20
2023-02-13T14:20:41.014Z,13.38
2023-02-13T14:23:18.200Z,12.73
2023-02-13T14:25:46.577Z,13.75
2023-02-13T14:28:27.716Z,13.00
2023-02-13T14:31:06.125Z,12.90
2023-02-13T14:33:34.241Z,13.13
2023-02-13T14:36:09.941Z,13.20
2023-02-13T14:38:38.008Z,12.95
2023-02-13T14:41:07.256Z,12.90
2023-02-13T14:43:39.063Z,13.35
2023-02-13T14:48:42.633Z,12.43
2023-02-13T14:51:17.311Z,12.35
2023-02-13T14:53:53.352Z,12.57
2023-02-13T14:56:22.917Z,13.90
2023-02-13T14:58:53.290Z,12.77
2023-02-13T15:01:34.521Z,13.00
2023-02-13T15:04:11.839Z,12.70
2023-02-13T15:06:41.657Z,13.35
2023-02-13T15:09:21.002Z,12.57
2023-02-13T15:11:48.554Z,13.48
2023-02-13T15:14:19.218Z,12.45
2023-02-13T15:16:49.079Z,13.52
2023-02-13T15:19:18.041Z,12.48
2023-02-13T15:21:53.282Z,13.32
2023-02-13T15:24:24.944Z,12.10
2023-02-13T15:27:03.275Z,13.00
2023-02-13T15:29:47.586Z,12.70
2023-02-13T15:32:21.721Z,12.60
2023-02-13T15:34:49.580Z,13.90
2023-02-13T15:37:24.293Z,13.48
2023-02-13T15:39:51.893Z,12.55
2023-02-13T15:42:19.610Z,12.48
2023-02-13T15:44:52.353Z,12.73
2023-02-13T15:47:27.705Z,12.80
2023-02-13T15:49:55.398Z,12.52
2023-02-13T15:52:34.220Z,13.35
2023-02-13T15:55:01.947Z,13.32
2023-02-13T15:57:29.844Z,13.65
2023-02-13T15:59:58.087Z,12.93
2023-02-13T16:02:42.612Z,14.18
2023-02-13T16:05:11.888Z,13.82
2023-02-13T16:07:53.037Z,13.38
2023-02-13T16:10:34.225Z,14.15
2023-02-13T16:13:03.432Z,13.87
2023-02-13T16:15:32.569Z,14.00
2023-02-13T16:18:00.410Z,14.23
2023-02-13T16:20:29.225Z,13.60
2023-02-13T16:22:59.174Z,14.60
2023-02-13T16:25:28.855Z,14.18
2023-02-13T16:27:58.039Z,14.43
2023-02-13T16:30:41.672Z,14.60
2023-02-13T16:33:12.100Z,15.90
2023-02-13T16:35:42.023Z,14.40
2023-02-13T16:38:29.369Z,14.68
2023-02-13T16:40:58.484Z,14.40
2023-02-13T16:43:35.139Z,14.45
2023-02-13T16:46:23.577Z,14.38
2023-02-13T16:48:57.456Z,14.82
2023-02-13T16:51:33.768Z,15.07
2023-02-13T16:54:03.669Z,15.75
2023-02-13T16:56:41.933Z,16.02
2023-02-13T16:59:15.307Z,14.68
2023-02-13T17:01:42.890Z,15.50
2023-02-13T17:04:16.765Z,15.18
2023-02-13T17:06:44.386Z,15.75
2023-02-13T17:09:12.095Z,16.23
2023-02-13T17:11:39.920Z,15.95
2023-02-13T17:14:07.533Z,15.23
2023-02-13T17:16:35.198Z,16.58
2023-02-13T17:19:02.845Z,16.50
2023-02-13T17:21:30.375Z,16.50
2023-02-13T17:23:58.089Z,17.20
2023-02-13T17:26:25.656Z,16.42
2023-02-13T17:28:53.223Z,16.80
2023-02-13T17:31:20.973Z,15.95
2023-02-13T17:33:48.574Z,16.08
2023-02-13T17:36:16.110Z,16.77
2023-02-13T17:38:43.632Z,17.25
2023-02-13T17:41:15.485Z,15.93
2023-02-13T17:46:11.586Z,16.08
2023-02-13T17:48:39.156Z,17.42
2023-02-13T17:51:06.681Z,18.55
2023-02-13T17:53:34.690Z,18.10
2023-02-13T17:56:02.388Z,18.83
2023-02-13T17:58:29.970Z,18.67
2023-02-13T18:00:58.143Z,18.83
2023-02-13T18:03:26.013Z,18.92
2023-02-13T18:05:53.623Z,18.25
2023-02-13T18:08:21.178Z,19.05
2023-02-13T18:10:48.849Z,18.52
2023-02-13T18:13:16.452Z,20.00
2023-02-13T18:15:45.220Z,19.02
2023-02-13T18:18:14.253Z,19.48
2023-02-13T18:20:41.898Z,19.65
2023-02-13T18:23:09.788Z,20.48
2023-02-13T18:25:37.363Z,20.05
2023-02-13T18:28:05.009Z,19.15
2023-02-13T18:30:32.670Z,20.35
2023-02-13T18:33:04.799Z,20.85
2023-02-13T18:35:33.274Z,21.55
2023-02-13T18:38:00.821Z,19.92
2023-02-13T18:40:28.376Z,20.80
2023-02-13T18:42:55.949Z,20.67
2023-02-13T18:45:23.533Z,20.25
2023-02-13T18:47:51.072Z,21.05
2023-02-13T18:50:18.648Z,21.08
2023-02-13T18:52:46.728Z,19.77
2023-02-13T18:55:14.319Z,19.92
2023-02-13T18:57:43.545Z,20.95
2023-02-13T19:00:11.672Z,21.42
2023-02-13T19:02:39.269Z,21.55
2023-02-13T19:05:07.063Z,20.42
2023-02-13T19:07:34.693Z,20.45
2023-02-13T19:10:02.307Z,20.10
2023-02-13T19:12:29.897Z,34.47
2023-02-13T19:14:57.459Z,23.55
2023-02-13T19:17:25.145Z,21.80
2023-02-13T19:19:52.754Z,20.50
2023-02-13T19:22:20.302Z,21.23
2023-02-13T19:24:47.983Z,21.70
2023-02-13T19:27:15.522Z,21.10
2023-02-13T19:29:43.630Z,20.58
2023-02-13T19:32:11.464Z,20.15
2023-02-13T19:34:39.450Z,20.10
2023-02-13T19:37:07.017Z,19.70
2023-02-13T19:39:34.841Z,20.58
2023-02-13T19:42:02.427Z,19.92
2023-02-13T19:44:29.999Z,21.33
2023-02-13T19:46:57.572Z,21.83
2023-02-13T19:49:25.166Z,22.38
2023-02-13T19:51:52.712Z,21.13
2023-02-13T19:54:20.367Z,22.33
2023-02-13T19:56:48.021Z,22.23
2023-02-13T19:59:15.689Z,22.27
2023-02-13T20:01:43.454Z,22.67
2023-02-13T20:04:11.454Z,22.23
2023-02-13T20:06:39.309Z,21.92
2023-02-13T20:09:12.595Z,23.10
2023-02-13T20:11:41.287Z,22.60
2023-02-13T20:14:11.547Z,23.02
2023-02-13T20:16:39.420Z,23.42
2023-02-13T20:19:09.437Z,24.80
2023-02-13T20:21:37.301Z,24.25
2023-02-13T20:24:05.614Z,23.15
2023-02-13T20:26:34.685Z,23.38
2023-02-13T20:29:02.624Z,23.33
2023-02-13T20:31:30.845Z,24.50
2023-02-13T20:33:58.876Z,23.90
2023-02-13T20:36:27.903Z,23.20
2023-02-13T20:38:57.293Z,23.48
2023-02-13T20:41:26.210Z,24.63
2023-02-13T20:43:54.018Z,22.05
2023-02-13T20:46:21.562Z,23.60
2023-02-13T20:48:50.088Z,24.58
2023-02-13T20:51:18.293Z,25.02
2023-02-13T20:53:46.130Z,24.90
2023-02-13T20:56:15.222Z,23.70
2023-02-13T20:58:43.413Z,23.45
2023-02-13T21:01:12.429Z,22.42
2023-02-13T21:03:40.193Z,23.38
2023-02-13T21:06:08.122Z,20.77
2023-02-13T21:08:36.390Z,21.13
2023-02-13T21:11:08.203Z,20.08
2023-02-13T21:16:07.204Z,19.52
2023-02-13T21:18:35.528Z,18.92
2023-02-13T21:21:03.198Z,19.00
2023-02-13T21:23:31.029Z,19.33
2023-02-13T21:26:02.723Z,19.70
2023-02-13T21:28:30.467Z,19.50
2023-02-13T21:30:58.495Z,19.58
2023-02-13T21:33:26.320Z,19.50
2023-02-13T21:36:00.029Z,19.15
2023-02-13T21:38:27.591Z,20.55
2023-02-13T21:40:55.153Z,19.63
2023-02-13T21:43:23.160Z,19.85
2023-02-13T21:45:50.749Z,19.63
2023-02-13T21:48:18.292Z,19.30
2023-02-13T21:50:45.933Z,19.92
2023-02-13T21:53:13.496Z,20.85
2023-02-13T21:55:41.039Z,19.85
2023-02-13T21:58:08.994Z,19.73
2023-02-13T22:00:36.557Z,19.73
2023-02-13T22:03:04.225Z,18.83
2023-02-13T22:05:31.883Z,19.33
2023-02-13T22:08:12.412Z,18.83
2023-02-13T22:10:40.025Z,18.85
2023-02-13T22:13:07.647Z,19.25
2023-02-13T22:15:36.349Z,20.50
2023-02-13T22:18:03.979Z,20.60
2023-02-13T22:20:32.226Z,20.48
2023-02-13T22:22:59.774Z,20.38
2023-02-13T22:25:27.383Z,20.23
2023-02-13T22:27:54.932Z,19.65
2023-02-13T22:30:22.569Z,20.02
2023-02-13T22:32:50.158Z,18.60
2023-02-13T22:35:17.768Z,19.67
2023-02-13T22:37:45.333Z,20.00
2023-02-13T22:40:13.010Z,20.73
2023-02-13T22:42:41.565Z,19.17
2023-02-13T22:45:09.479Z,20.98
2023-02-13T22:47:37.028Z,19.73
2023-02-13T22:50:04.692Z,19.95
2023-02-13T22:52:32.279Z,18.83
2023-02-13T22:54:59.937Z,18.55
2023-02-13T22:57:27.486Z,17.73
2023-02-13T22:59:55.193Z,16.67
2023-02-13T23:02:22.839Z,17.10
2023-02-13T23:04:50.442Z,15.98
2023-02-13T23:07:18.399Z,16.33
2023-02-13T23:09:46.215Z,16.10
2023-02-13T23:12:32.576Z,17.35
2023-02-13T23:15:00.481Z,19.52
2023-02-13T23:17:46.951Z,21.55
2023-02-13T23:20:14.553Z,18.30
2023-02-13T23:22:42.117Z,18.05
2023-02-13T23:25:09.733Z,19.40
2023-02-13T23:27:37.472Z,17.58
2023-02-13T23:30:06.317Z,19.80
2023-02-13T23:32:33.982Z,17.73
2023-02-13T23:35:01.683Z,19.40
2023-02-13T23:37:29.329Z,17.65
2023-02-13T23:39:57.029Z,18.75
2023-02-13T23:42:24.658Z,18.25
2023-02-13T23:44:52.203Z,18.30
2023-02-13T23:47:19.767Z,18.77
2023-02-13T23:49:47.360Z,17.33
2023-02-13T23:52:14.930Z,17.08
2023-02-13T23:54:42.657Z,20.77
2023-02-13T23:57:10.814Z,20.42
2023-02-13T23:59:38.621Z,18.58
